createdAt,value
2019-03-25T00:01:26.138Z,3.40
2019-03-25T00:03:31.205Z,3.00
2019-03-25T00:05:55.071Z,2.30
2019-03-25T00:07:59.988Z,2.43
2019-03-25T00:10:23.738Z,3.03
2019-03-25T00:12:28.685Z,2.20
2019-03-25T00:14:44.723Z,3.40
2019-03-25T00:16:51.437Z,2.13
2019-03-25T00:18:56.313Z,2.97
2019-03-25T00:21:01.222Z,1.97
2019-03-25T00:23:06.262Z,3.10
2019-03-25T00:25:11.314Z,3.03
2019-03-25T00:27:34.956Z,2.17
2019-03-25T00:29:39.901Z,2.33
2019-03-25T00:31:45.246Z,1.97
2019-03-25T00:33:50.144Z,2.10
2019-03-25T00:36:13.944Z,2.40
2019-03-25T00:38:29.494Z,2.97
2019-03-25T00:40:45.219Z,2.17
2019-03-25T00:42:51.120Z,2.17
2019-03-25T00:45:14.874Z,2.40
2019-03-25T00:49:31.350Z,1.90
2019-03-25T00:51:36.326Z,3.07
2019-03-25T00:53:41.325Z,2.30
2019-03-25T00:55:46.318Z,2.50
2019-03-25T00:58:09.991Z,2.10
2019-03-25T01:00:15.468Z,2.10
2019-03-25T01:02:23.341Z,2.03
2019-03-25T01:04:47.104Z,2.73
2019-03-25T01:06:52.072Z,2.67
2019-03-25T01:08:56.942Z,3.30
2019-03-25T01:11:01.843Z,2.60
2019-03-25T01:13:25.507Z,2.97
2019-03-25T01:15:30.425Z,3.07
2019-03-25T01:17:35.343Z,2.60
2019-03-25T01:19:59.078Z,3.00
2019-03-25T01:22:04.682Z,2.80
2019-03-25T01:24:09.523Z,2.50
2019-03-25T01:26:14.436Z,2.20
2019-03-25T01:28:23.107Z,2.50
2019-03-25T01:30:31.097Z,3.37
2019-03-25T01:32:35.987Z,2.90
2019-03-25T01:34:41.236Z,2.70
2019-03-25T01:36:46.438Z,2.93
2019-03-25T01:39:10.156Z,2.90
2019-03-25T01:41:15.070Z,3.70
2019-03-25T01:43:20.915Z,3.30
2019-03-25T01:45:27.844Z,2.77
2019-03-25T01:47:32.796Z,2.50
2019-03-25T01:49:56.895Z,2.10
2019-03-25T01:52:12.644Z,2.03
2019-03-25T01:54:29.733Z,2.53
2019-03-25T01:56:45.927Z,2.30
2019-03-25T01:58:52.106Z,2.40
2019-03-25T02:01:15.789Z,2.57
2019-03-25T02:03:20.650Z,3.10
2019-03-25T02:05:25.627Z,3.67
2019-03-25T02:07:50.269Z,2.23
2019-03-25T02:09:55.984Z,2.80
2019-03-25T02:12:19.715Z,3.53
2019-03-25T02:14:35.295Z,2.80
2019-03-25T02:16:40.177Z,2.70
2019-03-25T02:18:45.666Z,3.67
2019-03-25T02:20:50.542Z,2.70
2019-03-25T02:23:14.307Z,2.57
2019-03-25T02:25:25.340Z,2.23
2019-03-25T02:29:37.422Z,3.30
2019-03-25T02:32:01.051Z,2.40
2019-03-25T02:34:06.275Z,2.80
2019-03-25T02:36:11.220Z,3.20
2019-03-25T02:38:16.178Z,3.30
2019-03-25T02:40:21.054Z,3.57
2019-03-25T02:42:26.043Z,3.60
2019-03-25T02:44:41.824Z,2.80
2019-03-25T02:46:46.725Z,3.77
2019-03-25T02:48:51.702Z,3.50
2019-03-25T02:50:56.679Z,2.60
2019-03-25T02:53:20.368Z,2.40
2019-03-25T02:55:42.059Z,3.37
2019-03-25T02:57:44.305Z,3.10
2019-03-25T02:59:49.229Z,3.77
2019-03-25T03:01:54.196Z,3.10
2019-03-25T03:03:59.115Z,3.30
2019-03-25T03:06:04.107Z,3.10
2019-03-25T03:08:09.057Z,4.13
2019-03-25T03:10:32.791Z,3.00
2019-03-25T03:12:37.810Z,2.20
2019-03-25T03:14:42.780Z,2.90
2019-03-25T03:16:48.194Z,3.40
2019-03-25T03:18:53.454Z,4.00
2019-03-25T03:20:58.474Z,4.20
2019-03-25T03:23:22.209Z,2.93
2019-03-25T03:25:38.496Z,3.70
2019-03-25T03:27:43.435Z,3.20
2019-03-25T03:29:48.370Z,3.33
2019-03-25T03:32:12.591Z,3.80
2019-03-25T03:34:17.587Z,2.03
2019-03-25T03:36:41.706Z,2.97
2019-03-25T03:38:46.544Z,3.33
2019-03-25T03:40:51.576Z,3.87
2019-03-25T03:43:15.211Z,2.67
2019-03-25T03:45:21.871Z,2.60
2019-03-25T03:47:26.930Z,2.73
2019-03-25T03:49:50.772Z,3.63
2019-03-25T03:51:57.102Z,1.87
2019-03-25T03:54:21.014Z,3.10
2019-03-25T03:56:25.984Z,4.30
2019-03-25T03:58:43.920Z,3.83
2019-03-25T04:00:48.605Z,3.90
2019-03-25T04:03:12.255Z,3.33
2019-03-25T04:05:17.171Z,3.47
2019-03-25T04:09:32.338Z,3.50
2019-03-25T04:11:58.271Z,3.83
2019-03-25T04:14:03.596Z,4.10
2019-03-25T04:16:27.301Z,3.80
2019-03-25T04:18:32.284Z,3.60
2019-03-25T04:20:37.257Z,4.57
2019-03-25T04:23:01.042Z,4.53
2019-03-25T04:25:06.196Z,4.40
2019-03-25T04:27:11.106Z,4.07
2019-03-25T04:29:16.043Z,4.60
2019-03-25T04:31:39.688Z,2.30
2019-03-25T04:33:55.305Z,3.97
2019-03-25T04:36:11.733Z,3.90
2019-03-25T04:38:28.544Z,3.30
2019-03-25T04:40:33.648Z,4.03
2019-03-25T04:42:38.565Z,3.17
2019-03-25T04:44:59.919Z,2.87
2019-03-25T04:46:50.985Z,2.60
2019-03-25T04:51:32.179Z,2.53
2019-03-25T04:53:37.141Z,1.90
2019-03-25T04:55:42.043Z,2.40
2019-03-25T04:57:47.339Z,2.50
2019-03-25T05:00:15.112Z,2.60
2019-03-25T05:02:31.597Z,2.30
2019-03-25T05:04:37.919Z,2.77
2019-03-25T05:06:43.940Z,1.87
2019-03-25T05:08:49.713Z,1.93
2019-03-25T05:10:54.611Z,1.23
2019-03-25T05:12:59.554Z,1.83
2019-03-25T05:15:04.960Z,1.43
2019-03-25T05:17:09.810Z,1.40
2019-03-25T05:19:14.935Z,1.70
2019-03-25T05:21:19.871Z,1.43
2019-03-25T05:23:25.062Z,1.97
2019-03-25T05:25:48.972Z,1.30
2019-03-25T05:27:53.897Z,0.97
2019-03-25T05:30:10.084Z,1.20
2019-03-25T05:32:15.050Z,1.40
2019-03-25T05:34:38.790Z,1.43
2019-03-25T05:36:54.756Z,1.50
2019-03-25T05:39:10.555Z,1.40
2019-03-25T05:41:15.447Z,1.40
2019-03-25T05:43:21.216Z,1.97
2019-03-25T05:45:26.387Z,1.50
2019-03-25T05:47:42.302Z,1.60
2019-03-25T05:49:48.272Z,1.67
2019-03-25T05:51:53.386Z,2.37
2019-03-25T05:54:17.021Z,1.40
2019-03-25T05:56:33.187Z,1.13
2019-03-25T05:58:38.165Z,1.50
2019-03-25T06:00:43.045Z,1.47
2019-03-25T06:02:47.944Z,0.90
2019-03-25T06:04:52.908Z,1.70
2019-03-25T06:07:18.401Z,1.83
2019-03-25T06:09:23.375Z,1.20
2019-03-25T06:11:28.383Z,1.40
2019-03-25T06:13:33.740Z,1.63
2019-03-25T06:15:39.113Z,1.73
2019-03-25T06:18:02.758Z,1.23
2019-03-25T06:20:08.176Z,2.00
2019-03-25T06:22:13.646Z,2.50
2019-03-25T06:24:19.886Z,1.93
2019-03-25T06:26:25.128Z,1.57
2019-03-25T06:28:31.127Z,2.57
2019-03-25T06:30:38.326Z,2.10
2019-03-25T06:32:43.245Z,3.30
2019-03-25T06:34:48.158Z,2.23
2019-03-25T06:36:53.139Z,2.60
2019-03-25T06:38:58.286Z,1.97
2019-03-25T06:41:03.268Z,2.23
2019-03-25T06:43:09.146Z,2.60
2019-03-25T06:45:14.737Z,1.33
2019-03-25T06:47:21.301Z,1.87
2019-03-25T06:49:26.230Z,2.53
2019-03-25T06:51:42.177Z,2.97
2019-03-25T06:53:47.173Z,1.50
2019-03-25T06:55:52.242Z,1.53
2019-03-25T06:57:58.115Z,2.20
2019-03-25T07:00:21.969Z,1.80
2019-03-25T07:02:28.893Z,1.60
2019-03-25T07:04:52.634Z,2.27
2019-03-25T07:06:57.748Z,2.80
2019-03-25T07:09:21.537Z,2.13
2019-03-25T07:11:27.556Z,2.33
2019-03-25T07:13:32.771Z,1.50
2019-03-25T07:15:56.815Z,2.27
2019-03-25T07:18:05.440Z,2.40
2019-03-25T07:20:10.593Z,3.50
2019-03-25T07:22:18.114Z,1.97
2019-03-25T07:29:12.845Z,2.60
2019-03-25T07:34:06.047Z,2.90
2019-03-25T07:36:11.475Z,2.33
2019-03-25T07:38:16.802Z,3.10
2019-03-25T07:40:22.745Z,3.70
2019-03-25T07:42:27.707Z,2.00
2019-03-25T07:44:32.833Z,1.60
2019-03-25T07:46:37.719Z,2.67
2019-03-25T07:48:42.667Z,2.60
2019-03-25T07:50:47.607Z,2.73
2019-03-25T07:52:54.447Z,3.40
2019-03-25T07:54:59.474Z,1.73
2019-03-25T07:57:04.530Z,2.00
2019-03-25T07:59:09.492Z,2.30
2019-03-25T08:01:14.578Z,1.80
2019-03-25T08:03:19.536Z,1.60
2019-03-25T08:05:24.726Z,1.30
2019-03-25T08:07:29.856Z,2.40
2019-03-25T08:09:35.269Z,1.53
2019-03-25T08:11:40.450Z,2.53
2019-03-25T08:13:45.452Z,1.17
2019-03-25T08:15:50.854Z,1.87
2019-03-25T08:17:55.852Z,1.53
2019-03-25T08:20:01.225Z,2.60
2019-03-25T08:22:06.183Z,3.00
2019-03-25T08:24:11.376Z,2.70
2019-03-25T08:26:16.489Z,2.57
2019-03-25T08:28:21.560Z,1.97
2019-03-25T08:30:26.520Z,2.40
2019-03-25T08:32:31.435Z,2.80
2019-03-25T08:34:37.281Z,1.50
2019-03-25T08:36:42.505Z,1.83
2019-03-25T08:38:47.461Z,2.77
2019-03-25T08:40:52.853Z,2.20
2019-03-25T08:42:58.211Z,2.13
2019-03-25T08:45:03.228Z,2.77
2019-03-25T08:47:08.122Z,1.63
2019-03-25T08:49:13.012Z,2.07
2019-03-25T08:51:36.639Z,2.93
2019-03-25T08:53:52.938Z,1.00
2019-03-25T08:55:57.893Z,2.60
2019-03-25T08:58:12.018Z,1.53
2019-03-25T09:00:10.421Z,1.27
2019-03-25T09:02:15.374Z,1.40
2019-03-25T09:04:39.144Z,1.50
2019-03-25T09:06:44.296Z,1.47
2019-03-25T09:08:50.763Z,1.00
2019-03-25T09:10:55.772Z,1.43
2019-03-25T09:13:19.420Z,2.13
2019-03-25T09:15:24.376Z,1.63
2019-03-25T09:17:29.424Z,0.70
2019-03-25T09:19:34.563Z,2.70
2019-03-25T09:21:39.556Z,2.17
2019-03-25T09:23:45.310Z,1.27
2019-03-25T09:25:52.744Z,1.70
2019-03-25T09:27:59.471Z,0.63
2019-03-25T09:30:12.473Z,1.20
2019-03-25T09:32:17.491Z,1.17
2019-03-25T09:34:22.369Z,0.80
2019-03-25T09:36:27.372Z,1.10
2019-03-25T09:38:33.788Z,1.20
2019-03-25T09:40:38.747Z,1.30
2019-03-25T09:42:43.669Z,2.03
2019-03-25T09:44:48.658Z,1.00
2019-03-25T09:47:00.748Z,1.37
2019-03-25T09:49:05.845Z,1.07
2019-03-25T09:51:11.269Z,1.87
2019-03-25T09:53:16.257Z,1.80
2019-03-25T09:55:22.146Z,0.80
2019-03-25T09:57:27.044Z,0.63
2019-03-25T09:59:32.217Z,0.87
2019-03-25T10:01:37.198Z,1.10
2019-03-25T10:03:42.083Z,1.03
2019-03-25T10:05:47.059Z,1.10
2019-03-25T10:07:52.422Z,1.37
2019-03-25T10:09:57.381Z,1.23
2019-03-25T10:12:04.379Z,1.80
2019-03-25T10:14:09.567Z,0.80
2019-03-25T10:16:14.655Z,1.60
2019-03-25T10:18:19.738Z,1.10
2019-03-25T10:20:27.548Z,1.10
2019-03-25T10:22:32.496Z,0.93
2019-03-25T10:24:38.281Z,1.07
2019-03-25T10:26:43.336Z,0.97
2019-03-25T10:29:09.328Z,0.60
2019-03-25T10:31:33.695Z,0.60
2019-03-25T10:33:38.754Z,0.90
2019-03-25T10:35:44.396Z,0.60
2019-03-25T10:40:15.347Z,1.57
2019-03-25T10:42:21.198Z,0.70
2019-03-25T10:44:26.178Z,1.33
2019-03-25T10:46:50.207Z,1.40
2019-03-25T10:48:56.675Z,0.73
2019-03-25T10:51:01.590Z,0.90
2019-03-25T10:53:09.004Z,0.67
2019-03-25T10:55:14.424Z,0.50
2019-03-25T10:57:22.598Z,0.93
2019-03-25T10:59:27.991Z,1.80
2019-03-25T11:01:51.660Z,1.60
2019-03-25T11:03:57.003Z,1.33
2019-03-25T11:06:02.359Z,1.87
2019-03-25T11:08:07.418Z,1.30
2019-03-25T11:10:13.969Z,1.37
2019-03-25T11:12:19.011Z,1.80
2019-03-25T11:14:23.985Z,1.37
2019-03-25T11:16:31.326Z,0.80
2019-03-25T11:18:36.408Z,1.13
2019-03-25T11:20:41.365Z,1.63
2019-03-25T11:22:48.016Z,0.97
2019-03-25T11:24:53.064Z,2.03
2019-03-25T11:27:00.378Z,1.80
2019-03-25T11:29:08.732Z,1.10
2019-03-25T11:31:15.415Z,1.30
2019-03-25T11:33:21.076Z,0.70
2019-03-25T11:35:26.017Z,0.90
2019-03-25T11:37:33.241Z,1.83
2019-03-25T11:39:38.170Z,1.07
2019-03-25T11:41:44.688Z,0.90
2019-03-25T11:43:49.750Z,0.93
2019-03-25T11:46:13.647Z,1.07
2019-03-25T11:48:18.650Z,1.03
2019-03-25T11:50:24.461Z,1.40
2019-03-25T11:52:29.416Z,1.70
2019-03-25T11:54:34.352Z,1.90
2019-03-25T11:56:39.780Z,1.20
2019-03-25T11:58:46.234Z,1.40
2019-03-25T12:00:51.551Z,1.87
2019-03-25T12:02:57.147Z,2.17
2019-03-25T12:05:03.179Z,1.97
2019-03-25T12:07:08.258Z,1.10
2019-03-25T12:09:13.383Z,0.60
2019-03-25T12:11:18.807Z,0.80
2019-03-25T12:13:23.826Z,0.60
2019-03-25T12:15:28.994Z,1.50
2019-03-25T12:17:34.073Z,0.70
2019-03-25T12:19:40.117Z,1.63
2019-03-25T12:21:45.587Z,0.80
2019-03-25T12:23:50.950Z,1.73
2019-03-25T12:25:58.150Z,1.63
2019-03-25T12:28:03.275Z,1.47
2019-03-25T12:30:08.627Z,2.40
2019-03-25T12:32:15.458Z,1.00
2019-03-25T12:34:20.728Z,1.90
2019-03-25T12:36:25.795Z,1.30
2019-03-25T12:38:30.821Z,1.00
2019-03-25T12:40:36.071Z,0.80
2019-03-25T12:42:41.681Z,0.30
2019-03-25T12:44:46.703Z,0.57
2019-03-25T12:46:52.866Z,0.60
2019-03-25T12:49:00.417Z,0.40
2019-03-25T12:53:34.723Z,0.90
2019-03-25T12:55:39.987Z,0.80
2019-03-25T12:57:45.447Z,0.40
2019-03-25T12:59:55.336Z,0.73
2019-03-25T13:02:00.894Z,0.63
2019-03-25T13:04:06.009Z,0.50
2019-03-25T13:06:11.874Z,1.70
2019-03-25T13:08:16.927Z,0.73
2019-03-25T13:10:29.745Z,0.73
2019-03-25T13:12:34.694Z,0.60
2019-03-25T13:15:01.725Z,1.13
2019-03-25T13:17:07.263Z,1.07
2019-03-25T13:19:14.745Z,0.70
2019-03-25T13:21:39.998Z,1.23
2019-03-25T13:23:46.621Z,1.73
2019-03-25T13:25:51.986Z,1.10
2019-03-25T13:27:57.005Z,1.90
2019-03-25T13:30:01.966Z,1.53
2019-03-25T13:32:07.000Z,1.17
2019-03-25T13:34:12.159Z,1.47
2019-03-25T13:36:35.988Z,0.70
2019-03-25T13:38:42.269Z,0.90
2019-03-25T13:41:06.758Z,0.97
2019-03-25T13:43:13.188Z,0.80
2019-03-25T13:47:35.311Z,1.73
2019-03-25T13:49:41.692Z,0.90
2019-03-25T13:51:47.221Z,1.40
2019-03-25T13:53:53.724Z,1.93
2019-03-25T13:56:26.965Z,1.27
2019-03-25T14:01:23.992Z,0.53
2019-03-25T14:05:51.793Z,2.00
2019-03-25T14:07:57.039Z,1.57
2019-03-25T14:10:04.889Z,2.97
2019-03-25T14:12:18.495Z,1.40
2019-03-25T14:14:24.467Z,1.90
2019-03-25T14:19:17.001Z,2.73
2019-03-25T14:21:41.731Z,2.37
2019-03-25T14:23:47.695Z,1.93
2019-03-25T14:25:53.181Z,1.80
2019-03-25T14:27:59.270Z,2.40
2019-03-25T14:30:28.703Z,1.70
2019-03-25T14:32:45.634Z,1.90
2019-03-25T14:34:51.059Z,1.67
2019-03-25T14:36:57.417Z,2.27
2019-03-25T14:39:02.774Z,1.53
2019-03-25T14:41:09.047Z,1.20
2019-03-25T14:43:14.380Z,1.70
2019-03-25T14:45:38.201Z,1.20
2019-03-25T14:47:43.264Z,1.47
2019-03-25T14:49:48.333Z,1.10
2019-03-25T14:51:53.646Z,2.03
2019-03-25T14:54:17.426Z,1.13
2019-03-25T14:56:26.648Z,1.43
2019-03-25T14:58:33.426Z,1.63
2019-03-25T15:00:40.011Z,1.63
2019-03-25T15:02:45.010Z,2.40
2019-03-25T15:04:51.445Z,1.10
2019-03-25T15:06:56.469Z,1.00
2019-03-25T15:09:01.575Z,2.37
2019-03-25T15:11:09.324Z,0.90
2019-03-25T15:13:14.403Z,1.90
2019-03-25T15:15:19.602Z,1.17
2019-03-25T15:17:33.753Z,1.17
2019-03-25T15:19:38.953Z,1.63
2019-03-25T15:21:43.977Z,1.30
2019-03-25T15:23:49.226Z,1.93
2019-03-25T15:25:55.569Z,1.30
2019-03-25T15:28:21.873Z,1.70
2019-03-25T15:30:35.423Z,1.57
2019-03-25T15:35:02.713Z,0.90
2019-03-25T15:37:18.458Z,0.87
2019-03-25T15:39:23.633Z,1.27
2019-03-25T15:41:28.686Z,1.80
2019-03-25T15:43:35.064Z,0.93
2019-03-25T15:45:40.154Z,0.80
2019-03-25T15:48:05.633Z,1.47
2019-03-25T15:50:11.244Z,1.20
2019-03-25T15:52:38.615Z,1.37
2019-03-25T15:54:51.456Z,2.13
2019-03-25T15:57:12.911Z,1.83
2019-03-25T15:59:17.331Z,1.83
2019-03-25T16:01:23.156Z,1.30
2019-03-25T16:03:28.924Z,1.20
2019-03-25T16:05:45.427Z,1.60
2019-03-25T16:08:01.749Z,0.90
2019-03-25T16:10:11.899Z,2.00
2019-03-25T16:12:17.356Z,1.40
2019-03-25T16:14:23.646Z,1.33
2019-03-25T16:16:28.746Z,1.67
2019-03-25T16:18:39.972Z,1.07
2019-03-25T16:20:45.933Z,2.40
2019-03-25T16:22:53.209Z,1.90
2019-03-25T16:24:58.426Z,1.87
2019-03-25T16:27:04.670Z,2.10
2019-03-25T16:29:18.122Z,1.33
2019-03-25T16:31:23.631Z,2.47
2019-03-25T16:33:29.362Z,2.50
2019-03-25T16:35:35.965Z,2.77
2019-03-25T16:37:42.033Z,1.63
2019-03-25T16:39:47.730Z,1.67
2019-03-25T16:42:15.074Z,1.63
2019-03-25T16:44:38.874Z,1.87
2019-03-25T16:46:43.906Z,1.20
2019-03-25T16:48:48.998Z,2.40
2019-03-25T16:50:53.923Z,2.07
2019-03-25T16:52:59.218Z,1.53
2019-03-25T16:55:23.014Z,2.17
2019-03-25T16:57:39.142Z,1.60
2019-03-25T16:59:55.002Z,1.50
2019-03-25T17:01:59.985Z,2.00
2019-03-25T17:04:05.128Z,2.30
2019-03-25T17:08:42.818Z,1.70
2019-03-25T17:10:48.383Z,1.07
2019-03-25T17:12:53.449Z,1.50
2019-03-25T17:14:59.391Z,1.70
2019-03-25T17:17:04.544Z,1.23
2019-03-25T17:21:58.049Z,0.97
2019-03-25T17:24:00.186Z,1.30
2019-03-25T17:26:05.476Z,1.20
2019-03-25T17:28:29.351Z,0.50
2019-03-25T17:30:35.325Z,0.90
2019-03-25T17:32:41.098Z,0.83
2019-03-25T17:34:46.081Z,0.90
2019-03-25T17:37:10.214Z,0.87
2019-03-25T17:39:16.170Z,0.93
2019-03-25T17:41:21.391Z,0.50
2019-03-25T17:43:46.084Z,1.43
2019-03-25T17:45:51.219Z,1.00
2019-03-25T17:47:59.013Z,0.63
2019-03-25T17:50:04.150Z,0.70
2019-03-25T17:52:09.175Z,1.03
2019-03-25T17:54:14.339Z,0.90
2019-03-25T17:56:19.491Z,1.03
2019-03-25T17:58:25.418Z,0.90
2019-03-25T18:01:38.743Z,2.40
2019-03-25T18:03:43.923Z,1.47
2019-03-25T18:05:49.616Z,1.50
2019-03-25T18:07:55.982Z,1.27
2019-03-25T18:10:03.540Z,1.20
2019-03-25T18:12:08.693Z,1.00
2019-03-25T18:14:14.201Z,1.30
2019-03-25T18:16:19.207Z,1.87
2019-03-25T18:18:24.867Z,1.57
2019-03-25T18:20:30.324Z,1.30
2019-03-25T18:22:39.771Z,1.60
2019-03-25T18:24:42.142Z,1.73
2019-03-25T18:26:47.314Z,1.50
2019-03-25T18:28:52.372Z,1.20
2019-03-25T18:30:57.524Z,1.07
2019-03-25T18:33:03.025Z,0.97
2019-03-25T18:35:08.218Z,1.10
2019-03-25T18:37:13.276Z,1.50
2019-03-25T18:39:18.509Z,1.33
2019-03-25T18:41:23.592Z,2.03
2019-03-25T18:43:30.616Z,0.70
2019-03-25T18:45:36.137Z,1.77
2019-03-25T18:47:41.112Z,1.30
2019-03-25T18:49:46.378Z,1.13
2019-03-25T18:51:51.679Z,1.80
2019-03-25T18:53:56.904Z,1.63
2019-03-25T18:56:02.970Z,1.63
2019-03-25T18:58:08.137Z,0.93
2019-03-25T19:00:34.459Z,1.20
2019-03-25T19:02:39.814Z,1.30
2019-03-25T19:05:03.963Z,1.27
2019-03-25T19:07:27.746Z,0.90
2019-03-25T19:09:34.509Z,1.87
2019-03-25T19:11:58.357Z,1.30
2019-03-25T19:14:03.432Z,1.27
2019-03-25T19:16:08.545Z,1.67
2019-03-25T19:18:14.294Z,1.47
2019-03-25T19:20:20.731Z,2.03
2019-03-25T19:22:25.839Z,1.30
2019-03-25T19:24:34.681Z,2.00
2019-03-25T19:26:40.006Z,2.30
2019-03-25T19:28:47.771Z,2.13
2019-03-25T19:30:56.740Z,2.83
2019-03-25T19:33:02.252Z,2.40
2019-03-25T19:35:08.451Z,1.40
2019-03-25T19:37:32.958Z,1.60
2019-03-25T19:39:52.045Z,1.40
2019-03-25T19:42:28.163Z,1.90
2019-03-25T19:44:06.045Z,1.73
2019-03-25T19:46:12.229Z,2.33
2019-03-25T19:48:19.187Z,1.40
2019-03-25T19:50:27.154Z,1.77
2019-03-25T19:52:35.875Z,1.30
2019-03-25T19:54:42.059Z,1.83
2019-03-25T19:56:48.965Z,1.67
2019-03-25T19:58:58.477Z,1.90
2019-03-25T20:01:09.623Z,1.40
2019-03-25T20:03:16.601Z,1.70
2019-03-25T20:05:22.158Z,1.53
2019-03-25T20:07:46.728Z,1.40
2019-03-25T20:09:56.736Z,1.40
2019-03-25T20:14:23.379Z,1.40
2019-03-25T20:16:31.081Z,2.07
2019-03-25T20:18:38.908Z,1.20
2019-03-25T20:20:47.186Z,1.33
2019-03-25T20:22:54.597Z,1.90
2019-03-25T20:25:02.793Z,2.27
2019-03-25T20:27:09.770Z,2.03
2019-03-25T20:29:17.950Z,1.53
2019-03-25T20:31:24.792Z,1.63
2019-03-25T20:33:49.897Z,2.20
2019-03-25T20:35:58.112Z,2.50
2019-03-25T20:38:06.058Z,2.10
2019-03-25T20:40:15.223Z,2.30
2019-03-25T20:42:43.708Z,2.20
2019-03-25T20:44:52.944Z,1.40
2019-03-25T20:46:59.040Z,2.23
2019-03-25T20:49:07.815Z,2.37
2019-03-25T20:51:48.173Z,2.30
2019-03-25T20:53:56.139Z,1.83
2019-03-25T20:56:04.189Z,1.60
2019-03-25T20:58:12.677Z,2.90
2019-03-25T21:00:34.186Z,2.07
2019-03-25T21:02:45.246Z,1.90
2019-03-25T21:04:52.420Z,2.20
2019-03-25T21:07:14.551Z,3.27
2019-03-25T21:09:34.167Z,2.90
2019-03-25T21:11:45.015Z,1.40
2019-03-25T21:14:03.982Z,2.23
2019-03-25T21:16:13.586Z,2.20
2019-03-25T21:18:23.006Z,2.20
2019-03-25T21:20:30.512Z,1.90
2019-03-25T21:22:37.028Z,2.80
2019-03-25T21:25:03.448Z,1.80
2019-03-25T21:27:10.927Z,2.03
2019-03-25T21:29:17.600Z,2.47
2019-03-25T21:31:24.884Z,1.83
2019-03-25T21:33:32.574Z,1.97
2019-03-25T21:35:38.396Z,2.20
2019-03-25T21:37:48.406Z,2.30
2019-03-25T21:39:56.017Z,3.00
2019-03-25T21:42:03.631Z,2.83
2019-03-25T21:44:09.298Z,2.80
2019-03-25T21:46:16.907Z,2.13
2019-03-25T21:48:22.404Z,3.47
2019-03-25T21:50:29.867Z,2.63
2019-03-25T21:52:35.651Z,2.83
2019-03-25T21:54:41.980Z,2.10
2019-03-25T21:56:47.331Z,2.80
2019-03-25T21:59:00.536Z,2.23
2019-03-25T22:01:05.882Z,3.50
2019-03-25T22:03:12.343Z,2.80
2019-03-25T22:05:18.573Z,3.77
2019-03-25T22:07:24.689Z,2.57
2019-03-25T22:09:29.801Z,2.83
2019-03-25T22:11:35.207Z,2.33
2019-03-25T22:13:40.489Z,2.30
2019-03-25T22:15:46.025Z,2.77
2019-03-25T22:17:52.423Z,3.03
2019-03-25T22:20:01.032Z,2.60
2019-03-25T22:22:06.484Z,2.20
2019-03-25T22:24:12.421Z,2.57
2019-03-25T22:26:17.392Z,3.53
2019-03-25T22:28:23.235Z,2.00
2019-03-25T22:30:28.465Z,3.47
2019-03-25T22:32:35.288Z,2.20
2019-03-25T22:34:41.671Z,2.53
2019-03-25T22:36:46.794Z,3.10
2019-03-25T22:38:52.036Z,4.03
2019-03-25T22:40:57.316Z,3.17
2019-03-25T22:43:02.709Z,2.53
2019-03-25T22:45:08.325Z,2.77
2019-03-25T22:47:13.420Z,3.90
2019-03-25T22:49:18.407Z,2.43
2019-03-25T22:51:23.897Z,3.20
2019-03-25T22:53:28.878Z,3.57
2019-03-25T22:55:34.552Z,3.03
2019-03-25T22:57:39.544Z,2.50
2019-03-25T22:59:44.539Z,2.50
2019-03-25T23:01:49.635Z,2.63
2019-03-25T23:03:54.691Z,2.70
2019-03-25T23:05:59.614Z,1.90
2019-03-25T23:08:25.306Z,2.97
2019-03-25T23:10:49.078Z,2.40
2019-03-25T23:13:04.623Z,2.20
2019-03-25T23:15:09.615Z,2.53
2019-03-25T23:17:33.354Z,2.23
2019-03-25T23:19:51.133Z,2.60
2019-03-25T23:21:56.898Z,3.80
2019-03-25T23:24:01.910Z,3.10
2019-03-25T23:26:07.264Z,3.00
2019-03-25T23:28:12.297Z,3.67
2019-03-25T23:30:17.383Z,4.03
2019-03-25T23:32:23.236Z,3.57
2019-03-25T23:34:28.192Z,1.87
2019-03-25T23:36:33.195Z,2.63
2019-03-25T23:38:38.453Z,2.20
2019-03-25T23:40:43.510Z,3.37
2019-03-25T23:42:48.670Z,2.97
2019-03-25T23:44:53.593Z,2.23
2019-03-25T23:46:58.542Z,3.30
2019-03-25T23:49:03.651Z,2.70
2019-03-25T23:51:08.767Z,2.53
2019-03-25T23:53:32.516Z,2.23
2019-03-25T23:55:37.438Z,3.40
2019-03-25T23:57:42.403Z,3.63
2019-03-25T23:59:47.417Z,3.27
